Rechercher aéroport 
image banner adimage banner adimage banner ad
image banner ad

75CL - Ronald Reagan Ucla Medical Center Helistop

Situé à Los Angeles, United States

ICAO - 75CL, IATA -

Données fournies par Airmate  

Information générale

Coordonnées: N34°4'0" W118°26'47"
Élévation : 507 feet MSL.
 
Voir autres Aéroports à California

Données opérationnelles

Special qualification required
Heure actuelle UTC:
Heure actuelle locale:
Météo à : KSMO - Santa Monica Muni ( 6 km )
METAR: KSMO 251551Z 25003KT 10SM OVC014 20/16 A3000 RMK AO2 SLP157 T02000161
TAF: KSMO 251416Z 2514/2612 VRB05KT P6SM SCT013 BKN220 TEMPO 2514/2516 BKN013 FM251800 23008KT P6SM FEW015 BKN120 FM260400 VRB03KT P6SM BKN012 OVC120 FM260900 VRB03KT P6SM VCSH OVC100
Voir NOTAMs / SUP AIP / TFR affectant cet aéroport [VIEW]
Fréquences de communication: [VIEW]

Pistes:

Coordonnées de l'aéroport

Adresse: Los Angeles United States

Vue satellite de 75CL